Aegean Orion — SVA2487 — position and weather

sailwx.info

Track history (hours):
 
Tides and Currents Weather Stations Pressure Air Temp Water Temp Dewpoint Dewpoint Depression Visibility Wind Speed Wind Dir Waves Ship Positions

Aegean Orion

Last reported at 2015-Jul-29 10:04 UTC. Time now 2015-Jul-29 20:00 UTC.
Position N 38°02' E 023°32'.

; draft 2.4 m.

Type: Ship. MMSI: 239550200.

Date/timePositionNaut miles runAvg speedWind from/ knotsBaromVisibWave heightAir tempDewpointWater temp
2015-Jul-29 10:04N 38°02' E 023°32'3 5.4
2015-Jul-29 09:32N 38°02' E 023°36'0 0.0
2015-Jul-29 08:31N 38°02' E 023°36'0 0.3
2015-Jul-29 07:33N 38°02' E 023°35'0 0.1
2015-Jul-29 06:31N 38°02' E 023°35'0 0.0
2015-Jul-29 05:09N 38°02' E 023°35'0 0.0
2015-Jul-29 04:33N 38°02' E 023°35'3 2.7
2015-Jul-29 03:33N 38°02' E 023°32'1 0.0
2015-Jul-28 15:14N 38°02' E 023°32'5 7.9
2015-Jul-28 14:33N 37°57' E 023°35'2 2.5
2015-Jul-28 13:34N 37°57' E 023°38'0 0.0
2015-Jul-28 12:33N 37°57' E 023°38'1 1.5
2015-Jul-28 11:33N 37°56' E 023°37'2 2.0
2015-Jul-28 10:33N 37°57' E 023°35'0 0.0
2015-Jul-28 09:34N 37°57' E 023°35'3 2.8
2015-Jul-28 08:34N 37°56' E 023°38'0 0.0
2015-Jul-28 07:33N 37°56' E 023°38'0 0.0
2015-Jul-28 06:33N 37°56' E 023°38'1 1.2
2015-Jul-28 05:34N 37°57' E 023°36'6 6.3
2015-Jul-28 04:34N 38°02' E 023°32'0 0.0
2015-Jul-27 12:33N 38°02' E 023°32'0 0.3
2015-Jul-27 11:32N 38°02' E 023°32'1 0.6
2015-Jul-27 10:33N 38°02' E 023°31'0 0.0
2015-Jul-27 09:33N 38°02' E 023°31'0 0.0
2015-Jul-27 08:33N 38°02' E 023°31'1 0.6
2015-Jul-27 07:33N 38°02' E 023°31'0 0.0
2015-Jul-27 06:33N 38°02' E 023°31'0 0.0
2015-Jul-27 05:33N 38°02' E 023°31'0 0.3
2015-Jul-27 04:33N 38°02' E 023°31'1 0.1
2015-Jul-26 15:13N 38°02' E 023°32'5 8.0
2015-Jul-26 14:33N 37°57' E 023°35'3 2.8
2015-Jul-26 13:33N 37°57' E 023°38'0 0.0
2015-Jul-26 12:33N 37°57' E 023°38'2 1.8
2015-Jul-26 11:33N 37°57' E 023°36'2 1.7
2015-Jul-26 10:33N 37°57' E 023°34'0 0.0
2015-Jul-26 09:33N 37°57' E 023°34'0 0.0
2015-Jul-26 08:33N 37°57' E 023°34'0 0.0
2015-Jul-26 07:33N 37°57' E 023°34'0 0.0
2015-Jul-26 06:33N 37°57' E 023°34'0 0.0
2015-Jul-26 05:33N 37°57' E 023°34'0 0.0
2015-Jul-26 04:33N 37°57' E 023°34'0 0.0
2015-Jul-26 03:33N 37°57' E 023°34'0 0.0
2015-Jul-26 02:33N 37°57' E 023°34'0 0.0
2015-Jul-26 01:33N 37°57' E 023°34'0 0.0
2015-Jul-26 00:33N 37°57' E 023°34'0 0.0
2015-Jul-25 23:33N 37°57' E 023°34'3 3.4
2015-Jul-25 22:33N 37°57' E 023°38'0 0.0
2015-Jul-25 21:33N 37°57' E 023°38'0 0.0
2015-Jul-25 20:33N 37°57' E 023°38'3 3.3
2015-Jul-25 19:33N 37°57' E 023°34'0 0.2
2015-Jul-25 18:33N 37°57' E 023°34'0 0.0
2015-Jul-25 17:33N 37°57' E 023°34'3 2.8
2015-Jul-25 16:33N 37°60' E 023°33'2 0.1
2015-Jul-24 18:18N 38°02' E 023°31'0 0.6
2015-Jul-24 17:33N 38°02' E 023°31'0 0.0
2015-Jul-24 16:33N 38°02' E 023°31'0 0.0
2015-Jul-24 15:33N 38°02' E 023°31'4 3.6
2015-Jul-24 14:34N 37°59' E 023°33'5 4.9
2015-Jul-24 13:34N 37°57' E 023°38'0 0.0
2015-Jul-24 12:34N 37°57' E 023°38'1 1.4
2015-Jul-24 11:34N 37°56' E 023°37'1 0.5
2015-Jul-24 10:34N 37°56' E 023°37'0 0.0
2015-Jul-24 09:33N 37°56' E 023°37'0 0.0
2015-Jul-24 08:33N 37°56' E 023°37'0 0.0
2015-Jul-24 07:34N 37°56' E 023°37'2 2.2
2015-Jul-24 06:34N 37°57' E 023°35'6 5.6
2015-Jul-24 05:33N 38°02' E 023°32'0 0.0
2015-Jul-23 10:31N 38°02' E 023°32'1 1.1
2015-Jul-23 09:33N 38°02' E 023°31'0 0.0
2015-Jul-23 08:33N 38°02' E 023°31'0 0.0
2015-Jul-23 07:33N 38°02' E 023°31'0 0.0
2015-Jul-23 06:33N 38°02' E 023°31'0 0.0
2015-Jul-23 05:33N 38°02' E 023°31'1 0.6
2015-Jul-23 04:33N 38°02' E 023°31'3 2.8
2015-Jul-23 03:33N 37°59' E 023°33'2 2.2
2015-Jul-23 02:33N 37°57' E 023°34'0 0.0
2015-Jul-23 01:33N 37°57' E 023°34'0 0.0
2015-Jul-23 00:33N 37°57' E 023°34'0 0.0
2015-Jul-22 23:33N 37°57' E 023°34'3 3.2
2015-Jul-22 22:33N 37°57' E 023°38'0 0.1
2015-Jul-22 21:33N 37°57' E 023°38'0 0.0
2015-Jul-22 20:33N 37°57' E 023°38'3 3.3
2015-Jul-22 19:33N 37°57' E 023°34'0 0.0
2015-Jul-22 18:33N 37°57' E 023°34'0 0.0
2015-Jul-22 17:33N 37°57' E 023°34'5 0.1
2015-Jul-21 05:05N 38°02' E 023°32'0 0.0
2015-Jul-21 04:33N 38°02' E 023°32'0 0.0
2015-Jul-21 03:33N 38°02' E 023°32'0 0.0
2015-Jul-21 02:33N 38°02' E 023°32'1 1.0
2015-Jul-21 01:33N 38°02' E 023°31'0 0.0
2015-Jul-21 00:33N 38°02' E 023°31'0 0.0
2015-Jul-20 23:33N 38°02' E 023°31'0 0.0
2015-Jul-20 22:33N 38°02' E 023°31'0 0.0
2015-Jul-20 21:33N 38°02' E 023°31'0 0.0
2015-Jul-20 20:33N 38°02' E 023°31'3 3.3
2015-Jul-20 19:33N 37°59' E 023°33'5 5.0
2015-Jul-20 18:33N 37°57' E 023°38'0 0.0
2015-Jul-20 17:33N 37°57' E 023°38'2 2.0
2015-Jul-20 16:33N 37°57' E 023°36'1 1.2
2015-Jul-20 15:33N 37°57' E 023°35'0 0.0
2015-Jul-20 14:33N 37°57' E 023°35'3 3.1
2015-Jul-20 13:33N 37°57' E 023°38'0 0.0
2015-Jul-20 12:33N 37°57' E 023°38'2 1.5
2015-Jul-20 11:34N 37°56' E 023°37'6 5.8
2015-Jul-20 10:33N 38°01' E 023°32'1 0.1
2015-Jul-19 15:23N 38°02' E 023°32'1 1.2
2015-Jul-19 14:33N 38°02' E 023°31'0 0.0
2015-Jul-19 13:33N 38°02' E 023°31'0 0.0
2015-Jul-19 12:33N 38°02' E 023°31'0 0.0
2015-Jul-19 11:33N 38°02' E 023°31'0 0.0
2015-Jul-19 10:33N 38°02' E 023°31'  
Track history (hours):
 
Tides and Currents Weather Stations Pressure Air Temp Water Temp Dewpoint Dewpoint Depression Visibility Wind Speed Wind Dir Waves Ship Positions

Aegean Orion

Last reported at 2015-Jul-29 10:04 UTC. Time now 2015-Jul-29 20:00 UTC.
Position N 38°02' E 023°32'.

; draft 2.4 m.

Type: Ship. MMSI: 239550200.

Date/timePositionNaut miles runAvg speedWind from/ knotsBaromVisibWave heightAir tempDewpointWater temp
2015-Jul-29 10:04N 38°02' E 023°32'3 5.4
2015-Jul-29 09:32N 38°02' E 023°36'0 0.0
2015-Jul-29 08:31N 38°02' E 023°36'0 0.3
2015-Jul-29 07:33N 38°02' E 023°35'0 0.1
2015-Jul-29 06:31N 38°02' E 023°35'0 0.0
2015-Jul-29 05:09N 38°02' E 023°35'0 0.0
2015-Jul-29 04:33N 38°02' E 023°35'3 2.7
2015-Jul-29 03:33N 38°02' E 023°32'1 0.0
2015-Jul-28 15:14N 38°02' E 023°32'5 7.9
2015-Jul-28 14:33N 37°57' E 023°35'2 2.5
2015-Jul-28 13:34N 37°57' E 023°38'0 0.0
2015-Jul-28 12:33N 37°57' E 023°38'1 1.5
2015-Jul-28 11:33N 37°56' E 023°37'2 2.0
2015-Jul-28 10:33N 37°57' E 023°35'0 0.0
2015-Jul-28 09:34N 37°57' E 023°35'3 2.8
2015-Jul-28 08:34N 37°56' E 023°38'0 0.0
2015-Jul-28 07:33N 37°56' E 023°38'0 0.0
2015-Jul-28 06:33N 37°56' E 023°38'1 1.2
2015-Jul-28 05:34N 37°57' E 023°36'6 6.3
2015-Jul-28 04:34N 38°02' E 023°32'0 0.0
2015-Jul-27 12:33N 38°02' E 023°32'0 0.3
2015-Jul-27 11:32N 38°02' E 023°32'1 0.6
2015-Jul-27 10:33N 38°02' E 023°31'0 0.0
2015-Jul-27 09:33N 38°02' E 023°31'0 0.0
2015-Jul-27 08:33N 38°02' E 023°31'1 0.6
2015-Jul-27 07:33N 38°02' E 023°31'0 0.0
2015-Jul-27 06:33N 38°02' E 023°31'0 0.0
2015-Jul-27 05:33N 38°02' E 023°31'0 0.3
2015-Jul-27 04:33N 38°02' E 023°31'1 0.1
2015-Jul-26 15:13N 38°02' E 023°32'5 8.0
2015-Jul-26 14:33N 37°57' E 023°35'3 2.8
2015-Jul-26 13:33N 37°57' E 023°38'0 0.0
2015-Jul-26 12:33N 37°57' E 023°38'2 1.8
2015-Jul-26 11:33N 37°57' E 023°36'2 1.7
2015-Jul-26 10:33N 37°57' E 023°34'0 0.0
2015-Jul-26 09:33N 37°57' E 023°34'0 0.0
2015-Jul-26 08:33N 37°57' E 023°34'0 0.0
2015-Jul-26 07:33N 37°57' E 023°34'0 0.0
2015-Jul-26 06:33N 37°57' E 023°34'0 0.0
2015-Jul-26 05:33N 37°57' E 023°34'0 0.0
2015-Jul-26 04:33N 37°57' E 023°34'0 0.0
2015-Jul-26 03:33N 37°57' E 023°34'0 0.0
2015-Jul-26 02:33N 37°57' E 023°34'0 0.0
2015-Jul-26 01:33N 37°57' E 023°34'0 0.0
2015-Jul-26 00:33N 37°57' E 023°34'0 0.0
2015-Jul-25 23:33N 37°57' E 023°34'3 3.4
2015-Jul-25 22:33N 37°57' E 023°38'0 0.0
2015-Jul-25 21:33N 37°57' E 023°38'0 0.0
2015-Jul-25 20:33N 37°57' E 023°38'3 3.3
2015-Jul-25 19:33N 37°57' E 023°34'0 0.2
2015-Jul-25 18:33N 37°57' E 023°34'0 0.0
2015-Jul-25 17:33N 37°57' E 023°34'3 2.8
2015-Jul-25 16:33N 37°60' E 023°33'2 0.1
2015-Jul-24 18:18N 38°02' E 023°31'0 0.6
2015-Jul-24 17:33N 38°02' E 023°31'0 0.0
2015-Jul-24 16:33N 38°02' E 023°31'0 0.0
2015-Jul-24 15:33N 38°02' E 023°31'4 3.6
2015-Jul-24 14:34N 37°59' E 023°33'5 4.9
2015-Jul-24 13:34N 37°57' E 023°38'0 0.0
2015-Jul-24 12:34N 37°57' E 023°38'1 1.4
2015-Jul-24 11:34N 37°56' E 023°37'1 0.5
2015-Jul-24 10:34N 37°56' E 023°37'0 0.0
2015-Jul-24 09:33N 37°56' E 023°37'0 0.0
2015-Jul-24 08:33N 37°56' E 023°37'0 0.0
2015-Jul-24 07:34N 37°56' E 023°37'2 2.2
2015-Jul-24 06:34N 37°57' E 023°35'6 5.6
2015-Jul-24 05:33N 38°02' E 023°32'0 0.0
2015-Jul-23 10:31N 38°02' E 023°32'1 1.1
2015-Jul-23 09:33N 38°02' E 023°31'0 0.0
2015-Jul-23 08:33N 38°02' E 023°31'0 0.0
2015-Jul-23 07:33N 38°02' E 023°31'0 0.0
2015-Jul-23 06:33N 38°02' E 023°31'0 0.0
2015-Jul-23 05:33N 38°02' E 023°31'1 0.6
2015-Jul-23 04:33N 38°02' E 023°31'3 2.8
2015-Jul-23 03:33N 37°59' E 023°33'2 2.2
2015-Jul-23 02:33N 37°57' E 023°34'0 0.0
2015-Jul-23 01:33N 37°57' E 023°34'0 0.0
2015-Jul-23 00:33N 37°57' E 023°34'0 0.0
2015-Jul-22 23:33N 37°57' E 023°34'3 3.2
2015-Jul-22 22:33N 37°57' E 023°38'0 0.1
2015-Jul-22 21:33N 37°57' E 023°38'0 0.0
2015-Jul-22 20:33N 37°57' E 023°38'3 3.3
2015-Jul-22 19:33N 37°57' E 023°34'0 0.0
2015-Jul-22 18:33N 37°57' E 023°34'0 0.0
2015-Jul-22 17:33N 37°57' E 023°34'5 0.1
2015-Jul-21 05:05N 38°02' E 023°32'0 0.0
2015-Jul-21 04:33N 38°02' E 023°32'0 0.0
2015-Jul-21 03:33N 38°02' E 023°32'0 0.0
2015-Jul-21 02:33N 38°02' E 023°32'1 1.0
2015-Jul-21 01:33N 38°02' E 023°31'0 0.0
2015-Jul-21 00:33N 38°02' E 023°31'0 0.0
2015-Jul-20 23:33N 38°02' E 023°31'0 0.0
2015-Jul-20 22:33N 38°02' E 023°31'0 0.0
2015-Jul-20 21:33N 38°02' E 023°31'0 0.0
2015-Jul-20 20:33N 38°02' E 023°31'3 3.3
2015-Jul-20 19:33N 37°59' E 023°33'5 5.0
2015-Jul-20 18:33N 37°57' E 023°38'0 0.0
2015-Jul-20 17:33N 37°57' E 023°38'2 2.0
2015-Jul-20 16:33N 37°57' E 023°36'1 1.2
2015-Jul-20 15:33N 37°57' E 023°35'0 0.0
2015-Jul-20 14:33N 37°57' E 023°35'3 3.1
2015-Jul-20 13:33N 37°57' E 023°38'0 0.0
2015-Jul-20 12:33N 37°57' E 023°38'2 1.5
2015-Jul-20 11:34N 37°56' E 023°37'6 5.8
2015-Jul-20 10:33N 38°01' E 023°32'1 0.1
2015-Jul-19 15:23N 38°02' E 023°32'1 1.2
2015-Jul-19 14:33N 38°02' E 023°31'0 0.0
2015-Jul-19 13:33N 38°02' E 023°31'0 0.0
2015-Jul-19 12:33N 38°02' E 023°31'0 0.0
2015-Jul-19 11:33N 38°02' E 023°31'0 0.0
2015-Jul-19 10:33N 38°02' E 023°31'  

Dump ship's entire track history